createdAt,value
2023-04-18T00:01:35.512Z,83.73
2023-04-18T00:04:03.858Z,84.15
2023-04-18T00:06:33.446Z,83.43
2023-04-18T00:09:00.166Z,84.62
2023-04-18T00:11:27.081Z,83.99
2023-04-18T00:13:53.702Z,84.81
2023-04-18T00:16:20.232Z,84.72
2023-04-18T00:18:46.819Z,84.02
2023-04-18T00:21:13.292Z,84.42
2023-04-18T00:23:39.975Z,84.75
2023-04-18T00:26:06.493Z,84.66
2023-04-18T00:28:33.074Z,84.35
2023-04-18T00:30:59.654Z,85.50
2023-04-18T00:33:26.242Z,85.16
2023-04-18T00:35:53.792Z,84.75
2023-04-18T00:38:20.263Z,85.36
2023-04-18T00:40:46.906Z,86.00
2023-04-18T00:43:14.194Z,85.54
2023-04-18T00:45:40.867Z,86.50
2023-04-18T00:48:10.172Z,86.12
2023-04-18T00:50:37.750Z,86.00
2023-04-18T00:53:04.612Z,86.26
2023-04-18T00:55:31.452Z,86.86
2023-04-18T00:57:58.376Z,87.63
2023-04-18T01:00:24.906Z,87.46
2023-04-18T01:02:51.686Z,87.05
2023-04-18T01:05:18.951Z,87.79
2023-04-18T01:07:45.682Z,87.41
2023-04-18T01:10:12.429Z,87.28
2023-04-18T01:12:39.586Z,86.36
2023-04-18T01:15:07.132Z,87.09
2023-04-18T01:17:34.012Z,87.31
2023-04-18T01:20:01.271Z,87.98
2023-04-18T01:22:32.250Z,87.77
2023-04-18T01:24:58.787Z,87.80
2023-04-18T01:27:25.574Z,87.13
2023-04-18T01:29:52.149Z,88.32
2023-04-18T01:32:18.965Z,86.35
2023-04-18T01:34:45.582Z,87.04
2023-04-18T01:37:12.341Z,86.08
2023-04-18T01:39:38.915Z,86.61
2023-04-18T01:42:05.463Z,86.70
2023-04-18T01:44:32.025Z,86.36
2023-04-18T01:46:58.557Z,86.50
2023-04-18T01:49:25.175Z,86.71
2023-04-18T01:51:51.657Z,86.88
2023-04-18T01:54:18.280Z,87.24
2023-04-18T01:56:44.810Z,87.43
2023-04-18T01:59:11.311Z,86.80
2023-04-18T02:01:37.993Z,86.50
2023-04-18T02:04:04.651Z,86.69
2023-04-18T02:06:31.242Z,86.64
2023-04-18T02:08:57.871Z,87.08
2023-04-18T02:11:24.359Z,87.32
2023-04-18T02:13:51.014Z,86.72
2023-04-18T02:16:17.625Z,86.83
2023-04-18T02:18:44.140Z,87.80
2023-04-18T02:21:10.659Z,88.07
2023-04-18T02:23:37.250Z,87.33
2023-04-18T02:26:04.010Z,86.82
2023-04-18T02:28:30.572Z,86.82
2023-04-18T02:30:57.088Z,85.11
2023-04-18T02:33:23.574Z,85.45
2023-04-18T02:35:50.335Z,85.92
2023-04-18T02:38:16.939Z,86.30
2023-04-18T02:40:43.435Z,86.23
2023-04-18T02:43:09.938Z,86.48
2023-04-18T02:45:36.636Z,86.55
2023-04-18T02:48:03.162Z,86.43
2023-04-18T02:50:29.665Z,86.92
2023-04-18T02:52:56.191Z,87.27
2023-04-18T02:55:22.706Z,87.34
2023-04-18T02:57:49.269Z,87.15
2023-04-18T03:00:15.879Z,87.30
2023-04-18T03:02:42.458Z,87.70
2023-04-18T03:05:09.223Z,86.98
2023-04-18T03:07:35.828Z,86.66
2023-04-18T03:10:02.383Z,85.85
2023-04-18T03:12:28.975Z,86.06
2023-04-18T03:14:55.546Z,86.83
2023-04-18T03:17:22.263Z,85.29
2023-04-18T03:19:48.830Z,85.08
2023-04-18T03:22:16.076Z,84.98
2023-04-18T03:24:42.559Z,85.16
2023-04-18T03:27:09.192Z,85.47
2023-04-18T03:29:36.822Z,85.32
2023-04-18T03:32:03.327Z,85.88
2023-04-18T03:34:30.195Z,86.19
2023-04-18T03:36:56.816Z,85.87
2023-04-18T03:39:23.387Z,84.40
2023-04-18T03:41:49.927Z,83.98
2023-04-18T03:44:16.664Z,83.73
2023-04-18T03:46:43.445Z,83.71
2023-04-18T03:49:10.062Z,81.67
2023-04-18T03:51:46.783Z,80.22
2023-04-18T03:54:14.423Z,81.51
2023-04-18T03:56:41.346Z,81.01
2023-04-18T03:59:07.964Z,80.85
2023-04-18T04:01:34.463Z,79.90
2023-04-18T04:04:01.023Z,78.47
2023-04-18T04:06:27.580Z,77.75
2023-04-18T04:08:54.078Z,78.49
2023-04-18T04:11:20.805Z,78.39
2023-04-18T04:13:47.464Z,79.28
2023-04-18T04:16:13.956Z,80.16
2023-04-18T04:18:40.679Z,79.53
2023-04-18T04:21:07.169Z,78.49
2023-04-18T04:23:33.660Z,78.67
2023-04-18T04:26:00.202Z,78.92
2023-04-18T04:28:26.931Z,79.41
2023-04-18T04:30:53.450Z,79.04
2023-04-18T04:33:20.460Z,79.09
2023-04-18T04:35:47.437Z,77.88
2023-04-18T04:38:14.433Z,77.54
2023-04-18T04:40:41.587Z,77.64
2023-04-18T04:43:08.560Z,78.19
2023-04-18T04:45:35.102Z,77.37
2023-04-18T04:48:01.939Z,77.51
2023-04-18T04:50:28.557Z,76.63
2023-04-18T04:52:55.143Z,75.91
2023-04-18T04:55:21.635Z,75.84
2023-04-18T04:57:48.144Z,75.66
2023-04-18T05:00:15.139Z,75.14
2023-04-18T05:02:41.696Z,75.40
2023-04-18T05:05:08.671Z,74.64
2023-04-18T05:07:35.150Z,73.97
2023-04-18T05:10:03.006Z,73.46
2023-04-18T05:12:29.534Z,73.71
2023-04-18T05:14:56.063Z,74.26
2023-04-18T05:17:23.146Z,75.29
2023-04-18T05:19:49.761Z,74.52
2023-04-18T05:22:16.313Z,74.06
2023-04-18T05:24:42.874Z,73.33
2023-04-18T05:27:09.456Z,73.39
2023-04-18T05:29:35.934Z,72.43
2023-04-18T05:32:02.443Z,72.79
2023-04-18T05:34:28.952Z,72.81
2023-04-18T05:36:55.496Z,71.96
2023-04-18T05:39:22.008Z,71.33
2023-04-18T05:41:48.562Z,70.67
2023-04-18T05:44:15.149Z,71.23
2023-04-18T05:46:42.175Z,70.41
2023-04-18T05:49:08.908Z,69.38
2023-04-18T05:51:35.416Z,69.33
2023-04-18T05:54:01.939Z,69.48
2023-04-18T05:56:28.886Z,69.64
2023-04-18T05:58:55.485Z,70.28
2023-04-18T06:01:21.968Z,69.46
2023-04-18T06:03:48.852Z,68.52
2023-04-18T06:06:15.590Z,68.75
2023-04-18T06:08:42.112Z,67.73
2023-04-18T06:11:08.599Z,67.18
2023-04-18T06:13:35.367Z,66.73
2023-04-18T06:16:01.962Z,66.65
2023-04-18T06:18:28.509Z,66.40
2023-04-18T06:20:55.299Z,65.30
2023-04-18T06:23:21.861Z,64.52
2023-04-18T06:25:48.590Z,63.08
2023-04-18T06:28:15.201Z,62.49
2023-04-18T06:30:41.723Z,61.49
2023-04-18T06:33:08.255Z,60.98
2023-04-18T06:35:35.156Z,60.84
2023-04-18T06:38:01.742Z,61.03
2023-04-18T06:40:28.246Z,60.43
2023-04-18T06:42:54.891Z,61.06
2023-04-18T06:45:21.390Z,61.40
2023-04-18T06:47:48.060Z,60.95
2023-04-18T06:50:15.124Z,62.00
2023-04-18T06:52:41.677Z,62.21
2023-04-18T06:55:08.363Z,61.81
2023-04-18T06:57:38.030Z,62.05
2023-04-18T07:00:07.101Z,61.37
2023-04-18T07:02:36.148Z,61.97
2023-04-18T07:05:03.058Z,61.41
2023-04-18T07:07:30.546Z,61.60
2023-04-18T07:09:57.046Z,61.45
2023-04-18T07:12:23.563Z,61.53
2023-04-18T07:14:51.399Z,61.02
2023-04-18T07:17:18.047Z,60.54
2023-04-18T07:19:44.640Z,60.34
2023-04-18T07:22:11.230Z,60.89
2023-04-18T07:24:37.814Z,60.34
2023-04-18T07:27:04.576Z,59.83
2023-04-18T07:29:31.531Z,59.72
2023-04-18T07:31:58.276Z,58.32
2023-04-18T07:34:25.230Z,58.29
2023-04-18T07:36:51.732Z,57.88
2023-04-18T07:39:18.244Z,57.37
2023-04-18T07:41:44.747Z,56.40
2023-04-18T07:44:11.321Z,56.00
2023-04-18T07:46:38.045Z,55.57
2023-04-18T07:49:04.567Z,55.11
2023-04-18T07:51:34.169Z,54.21
2023-04-18T07:54:00.891Z,51.84
2023-04-18T07:56:27.944Z,51.48
2023-04-18T07:58:54.520Z,47.84
2023-04-18T08:01:21.040Z,48.42
2023-04-18T08:03:47.668Z,49.85
2023-04-18T08:06:15.543Z,48.92
2023-04-18T08:08:42.385Z,48.20
2023-04-18T08:11:09.314Z,48.82
2023-04-18T08:13:35.830Z,48.11
2023-04-18T08:16:02.460Z,47.73
2023-04-18T08:18:28.991Z,45.09
2023-04-18T08:20:55.540Z,43.67
2023-04-18T08:23:22.060Z,43.06
2023-04-18T08:25:49.433Z,41.59
2023-04-18T08:28:16.084Z,42.81
2023-04-18T08:30:42.915Z,40.50
2023-04-18T08:33:09.628Z,41.57
2023-04-18T08:35:36.190Z,40.66
2023-04-18T08:38:02.788Z,40.88
2023-04-18T08:40:29.270Z,43.09
2023-04-18T08:42:57.618Z,43.38
2023-04-18T08:45:24.101Z,41.89
2023-04-18T08:47:50.603Z,41.99
2023-04-18T08:50:17.142Z,40.96
2023-04-18T08:52:46.087Z,41.27
2023-04-18T08:55:13.156Z,41.54
2023-04-18T08:57:39.897Z,42.85
2023-04-18T09:00:07.152Z,43.73
2023-04-18T09:02:38.778Z,42.68
2023-04-18T09:05:12.999Z,42.60
2023-04-18T09:07:39.723Z,44.30
2023-04-18T09:10:06.738Z,42.46
2023-04-18T09:12:33.931Z,44.15
2023-04-18T09:15:10.807Z,45.13
2023-04-18T09:17:41.287Z,45.52
2023-04-18T09:20:09.638Z,48.55
2023-04-18T09:22:46.401Z,47.51
2023-04-18T09:25:24.054Z,49.65
2023-04-18T09:27:50.642Z,50.49
2023-04-18T09:30:30.352Z,52.00
2023-04-18T09:32:58.284Z,51.41
2023-04-18T09:35:25.908Z,50.87
2023-04-18T09:37:52.581Z,52.04
2023-04-18T09:40:20.159Z,52.70
2023-04-18T09:42:47.487Z,50.88
2023-04-18T09:45:14.032Z,52.78
2023-04-18T09:47:40.563Z,52.02
2023-04-18T09:50:09.457Z,52.64
2023-04-18T09:52:45.926Z,51.30
2023-04-18T09:55:17.500Z,52.93
2023-04-18T09:57:48.141Z,52.31
2023-04-18T10:00:16.298Z,51.02
2023-04-18T10:02:49.979Z,50.91
2023-04-18T10:05:19.506Z,52.09
2023-04-18T10:07:49.393Z,51.63
2023-04-18T10:10:16.550Z,52.72
2023-04-18T10:12:43.584Z,52.63
2023-04-18T10:15:10.479Z,52.86
2023-04-18T10:18:03.751Z,52.69
2023-04-18T10:20:33.438Z,52.28
2023-04-18T10:23:00.473Z,53.06
2023-04-18T10:25:39.165Z,53.85
2023-04-18T10:28:07.236Z,53.83
2023-04-18T10:30:54.909Z,53.83
2023-04-18T10:33:31.143Z,52.59
2023-04-18T10:36:09.190Z,53.66
2023-04-18T10:38:37.065Z,52.30
2023-04-18T10:41:33.359Z,52.99
2023-04-18T10:44:11.405Z,52.75
2023-04-18T10:46:43.075Z,52.69
2023-04-18T10:49:18.843Z,53.58
2023-04-18T10:51:49.558Z,53.54
2023-04-18T10:54:38.102Z,53.02
2023-04-18T10:57:05.895Z,52.06
2023-04-18T10:59:34.732Z,52.01
2023-04-18T11:02:19.514Z,52.84
2023-04-18T11:04:50.730Z,52.29
2023-04-18T11:07:17.317Z,52.99
2023-04-18T11:09:57.158Z,52.80
2023-04-18T11:12:23.678Z,52.27
2023-04-18T11:14:54.469Z,52.67
2023-04-18T11:17:23.178Z,52.50
2023-04-18T11:19:50.708Z,52.27
2023-04-18T11:22:17.967Z,53.91
2023-04-18T11:24:45.284Z,53.45
2023-04-18T11:27:12.587Z,53.75
2023-04-18T11:29:39.088Z,52.45
2023-04-18T11:32:06.834Z,52.67
2023-04-18T11:34:33.634Z,52.07
2023-04-18T11:37:00.256Z,51.85
2023-04-18T11:39:26.820Z,52.30
2023-04-18T11:41:53.436Z,53.32
2023-04-18T11:44:23.763Z,53.43
2023-04-18T11:46:50.427Z,52.21
2023-04-18T11:49:31.188Z,52.20
2023-04-18T11:51:59.110Z,51.37
2023-04-18T11:54:42.428Z,51.21
2023-04-18T11:57:26.564Z,51.66
2023-04-18T11:59:53.021Z,51.57
2023-04-18T12:02:21.160Z,51.61
2023-04-18T12:05:00.058Z,50.68
2023-04-18T12:07:40.737Z,51.07
2023-04-18T12:10:24.218Z,50.62
2023-04-18T12:12:52.102Z,50.29
2023-04-18T12:15:22.214Z,50.58
2023-04-18T12:17:48.725Z,48.96
2023-04-18T12:20:15.324Z,49.02
2023-04-18T12:22:45.723Z,49.54
2023-04-18T12:25:14.993Z,48.49
2023-04-18T12:27:51.935Z,47.71
2023-04-18T12:30:18.543Z,47.08
2023-04-18T12:32:45.185Z,45.87
2023-04-18T12:35:11.743Z,46.34
2023-04-18T12:37:38.239Z,46.07
2023-04-18T12:40:05.397Z,45.84
2023-04-18T12:42:31.954Z,45.88
2023-04-18T12:45:00.334Z,44.82
2023-04-18T12:47:26.921Z,45.66
2023-04-18T12:49:53.390Z,44.79
2023-04-18T12:52:19.946Z,45.26
2023-04-18T12:54:46.440Z,44.14
2023-04-18T12:57:12.903Z,45.13
2023-04-18T12:59:39.725Z,44.17
2023-04-18T13:02:06.359Z,44.48
2023-04-18T13:04:33.055Z,45.24
2023-04-18T13:06:59.741Z,45.63
2023-04-18T13:09:26.239Z,45.22
2023-04-18T13:11:53.007Z,45.29
2023-04-18T13:14:19.499Z,46.18
2023-04-18T13:16:46.056Z,45.97
2023-04-18T13:19:12.760Z,45.20
2023-04-18T13:21:39.486Z,45.45
2023-04-18T13:24:06.251Z,45.04
2023-04-18T13:26:32.869Z,45.38
2023-04-18T13:28:59.394Z,45.16
2023-04-18T13:31:25.955Z,46.24
2023-04-18T13:33:52.460Z,45.34
2023-04-18T13:36:18.935Z,45.59
2023-04-18T13:38:45.996Z,45.71
2023-04-18T13:41:13.771Z,45.25
2023-04-18T13:43:40.480Z,45.24
2023-04-18T13:46:07.055Z,45.06
2023-04-18T13:48:33.697Z,44.54
2023-04-18T13:51:00.255Z,45.03
2023-04-18T13:53:27.892Z,44.63
2023-04-18T13:55:55.374Z,44.41
2023-04-18T13:58:21.899Z,45.45
2023-04-18T14:00:48.452Z,45.33
2023-04-18T14:03:15.082Z,45.30
2023-04-18T14:05:41.654Z,44.31
2023-04-18T14:08:08.127Z,45.37
2023-04-18T14:10:37.380Z,45.07
2023-04-18T14:13:04.073Z,45.59
2023-04-18T14:15:30.618Z,45.15
2023-04-18T14:17:57.200Z,45.84
2023-04-18T14:20:23.919Z,45.47
2023-04-18T14:22:53.042Z,46.66
2023-04-18T14:25:19.927Z,45.39
2023-04-18T14:27:47.546Z,47.06
2023-04-18T14:30:14.717Z,47.39
2023-04-18T14:32:41.366Z,46.99
2023-04-18T14:35:08.418Z,46.90
2023-04-18T14:37:34.927Z,46.35
2023-04-18T14:40:01.493Z,46.10
2023-04-18T14:42:28.036Z,46.87
2023-04-18T14:44:54.607Z,48.38
2023-04-18T14:47:21.159Z,48.66
2023-04-18T14:49:47.764Z,48.92
2023-04-18T14:52:14.287Z,50.25
2023-04-18T14:54:40.893Z,51.05
2023-04-18T14:57:07.377Z,50.63
2023-04-18T14:59:33.922Z,50.62
2023-04-18T15:02:00.538Z,50.90
2023-04-18T15:04:27.338Z,50.66
2023-04-18T15:06:53.947Z,48.63
2023-04-18T15:09:20.610Z,48.62
2023-04-18T15:11:47.107Z,47.64
2023-04-18T15:14:13.910Z,48.11
2023-04-18T15:16:40.751Z,47.20
2023-04-18T15:19:07.493Z,46.56
2023-04-18T15:21:34.309Z,47.02
2023-04-18T15:24:00.818Z,46.94
2023-04-18T15:26:27.336Z,46.14
2023-04-18T15:28:54.130Z,47.24
2023-04-18T15:31:20.663Z,45.65
2023-04-18T15:33:47.226Z,46.91
2023-04-18T15:36:13.797Z,47.93
2023-04-18T15:38:40.275Z,48.03
2023-04-18T15:41:06.785Z,49.06
2023-04-18T15:43:33.274Z,48.62
2023-04-18T15:45:59.810Z,49.25
2023-04-18T15:48:26.303Z,48.21
2023-04-18T15:50:52.777Z,49.67
2023-04-18T15:53:19.372Z,49.28
2023-04-18T15:55:45.950Z,48.90
2023-04-18T15:58:12.662Z,50.59
2023-04-18T16:00:39.174Z,50.25
2023-04-18T16:03:07.039Z,50.68
2023-04-18T16:05:33.637Z,50.21
2023-04-18T16:08:00.204Z,49.06
2023-04-18T16:10:26.830Z,50.51
2023-04-18T16:12:53.377Z,51.21
2023-04-18T16:15:20.217Z,49.72
2023-04-18T16:17:46.712Z,48.06
2023-04-18T16:20:13.240Z,46.68
2023-04-18T16:22:39.732Z,47.51
2023-04-18T16:25:06.813Z,48.35
2023-04-18T16:27:33.471Z,48.24
2023-04-18T16:30:00.039Z,48.22
2023-04-18T16:32:26.582Z,48.55
2023-04-18T16:34:53.137Z,48.86
2023-04-18T16:37:20.073Z,48.88
2023-04-18T16:39:49.492Z,47.30
2023-04-18T16:42:16.334Z,47.08
2023-04-18T16:44:42.873Z,46.20
2023-04-18T16:47:09.478Z,46.96
2023-04-18T16:49:39.008Z,45.91
2023-04-18T16:52:05.512Z,45.24
2023-04-18T16:54:32.153Z,44.50
2023-04-18T16:56:58.701Z,44.23
2023-04-18T16:59:25.320Z,43.86
2023-04-18T17:01:51.928Z,44.14
2023-04-18T17:04:21.858Z,44.22
2023-04-18T17:06:49.772Z,43.56
2023-04-18T17:09:18.006Z,43.20
2023-04-18T17:11:44.508Z,43.17
2023-04-18T17:14:14.042Z,44.04
2023-04-18T17:16:41.835Z,43.30
2023-04-18T17:19:09.134Z,43.59
2023-04-18T17:21:36.421Z,43.54
2023-04-18T17:24:04.060Z,42.63
2023-04-18T17:26:31.074Z,42.79
2023-04-18T17:28:57.741Z,43.34
2023-04-18T17:31:24.315Z,43.95
2023-04-18T17:33:50.837Z,45.18
2023-04-18T17:36:17.698Z,47.09
2023-04-18T17:38:44.195Z,48.29
2023-04-18T17:41:10.702Z,51.18
2023-04-18T17:43:40.377Z,52.48
2023-04-18T17:46:09.586Z,54.39
2023-04-18T17:48:37.320Z,54.90
2023-04-18T17:51:03.877Z,56.06
2023-04-18T17:53:32.132Z,56.67
2023-04-18T17:55:59.326Z,57.31
2023-04-18T17:58:26.624Z,57.48
2023-04-18T18:00:53.573Z,58.21
2023-04-18T18:03:20.581Z,57.78
2023-04-18T18:05:48.613Z,58.51
2023-04-18T18:08:15.410Z,59.63
2023-04-18T18:10:42.009Z,60.33
2023-04-18T18:13:08.570Z,60.47
2023-04-18T18:15:35.100Z,60.73
2023-04-18T18:18:04.061Z,61.63
2023-04-18T18:20:30.684Z,61.97
2023-04-18T18:22:57.194Z,61.66
2023-04-18T18:25:23.757Z,62.20
2023-04-18T18:27:50.291Z,62.07
2023-04-18T18:30:17.072Z,62.46
2023-04-18T18:32:43.891Z,62.33
2023-04-18T18:35:10.412Z,62.51
2023-04-18T18:37:38.055Z,62.25
2023-04-18T18:40:04.981Z,62.39
2023-04-18T18:42:31.582Z,62.57
2023-04-18T18:44:58.059Z,62.77
2023-04-18T18:47:24.563Z,63.31
2023-04-18T18:49:51.069Z,63.39
2023-04-18T18:52:17.551Z,63.83
2023-04-18T18:54:44.301Z,63.76
2023-04-18T18:57:10.816Z,64.49
2023-04-18T18:59:37.495Z,64.59
2023-04-18T19:02:05.638Z,64.63
2023-04-18T19:04:32.328Z,64.92
2023-04-18T19:06:59.098Z,65.09
2023-04-18T19:09:25.614Z,65.77
2023-04-18T19:11:52.144Z,65.45
2023-04-18T19:14:18.684Z,66.19
2023-04-18T19:16:45.288Z,65.89
2023-04-18T19:19:11.948Z,65.93
2023-04-18T19:21:38.759Z,65.79
2023-04-18T19:24:05.789Z,65.50
2023-04-18T19:26:32.360Z,65.63
2023-04-18T19:28:58.844Z,65.82
2023-04-18T19:31:25.358Z,65.77
2023-04-18T19:33:51.865Z,65.61
2023-04-18T19:36:18.346Z,66.05
2023-04-18T19:38:44.827Z,65.59
2023-04-18T19:41:11.359Z,65.80
2023-04-18T19:43:38.046Z,66.66
2023-04-18T19:46:04.842Z,66.17
2023-04-18T19:48:31.426Z,65.71
2023-04-18T19:50:57.977Z,66.38
2023-04-18T19:53:24.583Z,66.65
2023-04-18T19:55:51.114Z,65.95
2023-04-18T19:58:33.848Z,66.23
2023-04-18T20:01:00.386Z,66.52
2023-04-18T20:03:27.332Z,66.34
2023-04-18T20:05:53.969Z,66.68
2023-04-18T20:08:20.476Z,66.36
2023-04-18T20:10:47.292Z,66.81
2023-04-18T20:13:14.942Z,66.67
2023-04-18T20:15:50.758Z,67.01
2023-04-18T20:18:17.349Z,66.79
2023-04-18T20:20:43.996Z,67.05
2023-04-18T20:23:10.866Z,66.92
2023-04-18T20:25:37.393Z,67.28
2023-04-18T20:28:03.959Z,67.26
2023-04-18T20:30:30.598Z,66.76
2023-04-18T20:32:57.204Z,66.99
2023-04-18T20:35:23.861Z,67.19
2023-04-18T20:37:50.425Z,67.87
2023-04-18T20:40:17.002Z,67.44
2023-04-18T20:42:43.503Z,67.48
2023-04-18T20:45:10.342Z,66.90
2023-04-18T20:47:37.118Z,67.58
2023-04-18T20:50:03.846Z,67.45
2023-04-18T20:52:30.350Z,68.15
2023-04-18T20:54:56.957Z,68.03
2023-04-18T20:57:23.444Z,68.29
2023-04-18T20:59:49.947Z,68.79
2023-04-18T21:02:16.728Z,68.88
2023-04-18T21:04:44.217Z,68.30
2023-04-18T21:07:10.702Z,69.25
2023-04-18T21:09:40.371Z,69.12
2023-04-18T21:12:06.995Z,69.34
2023-04-18T21:14:33.509Z,69.95
2023-04-18T21:17:00.088Z,69.97
2023-04-18T21:19:26.707Z,69.74
2023-04-18T21:21:53.261Z,70.37
2023-04-18T21:24:19.773Z,69.75
2023-04-18T21:26:46.274Z,70.23
2023-04-18T21:29:12.769Z,70.21
2023-04-18T21:31:39.361Z,71.21
2023-04-18T21:34:05.948Z,70.91
2023-04-18T21:36:32.843Z,71.33
2023-04-18T21:39:00.632Z,71.76
2023-04-18T21:41:27.334Z,72.02
2023-04-18T21:43:53.921Z,72.46
2023-04-18T21:46:20.874Z,72.34
2023-04-18T21:48:47.961Z,71.88
2023-04-18T21:51:19.194Z,72.60
2023-04-18T21:53:45.748Z,73.11
2023-04-18T21:56:12.335Z,73.16
2023-04-18T21:58:38.930Z,72.65
2023-04-18T22:01:05.603Z,73.12
2023-04-18T22:03:32.913Z,73.40
2023-04-18T22:05:59.681Z,73.15
2023-04-18T22:08:26.568Z,73.61
2023-04-18T22:10:54.218Z,73.86
2023-04-18T22:13:24.088Z,73.86
2023-04-18T22:15:51.041Z,73.48
2023-04-18T22:18:18.735Z,74.04
2023-04-18T22:20:45.646Z,74.45
2023-04-18T22:23:12.312Z,74.95
2023-04-18T22:25:38.923Z,74.92
2023-04-18T22:28:05.532Z,75.03
2023-04-18T22:30:32.080Z,75.37
2023-04-18T22:32:59.028Z,75.75
2023-04-18T22:35:25.933Z,75.01
2023-04-18T22:37:52.533Z,75.37
2023-04-18T22:40:19.177Z,75.89
2023-04-18T22:42:45.698Z,76.09
2023-04-18T22:45:14.677Z,75.34
2023-04-18T22:47:41.370Z,75.15
2023-04-18T22:50:08.470Z,75.62
2023-04-18T22:52:34.969Z,75.25
2023-04-18T22:55:02.501Z,76.39
2023-04-18T22:57:29.418Z,76.54
2023-04-18T22:59:56.018Z,76.23
2023-04-18T23:02:22.821Z,76.22
2023-04-18T23:04:49.599Z,76.17
2023-04-18T23:07:16.232Z,76.90
2023-04-18T23:09:42.729Z,77.02
2023-04-18T23:12:09.260Z,77.07
2023-04-18T23:14:35.849Z,76.62
2023-04-18T23:17:02.722Z,76.13
2023-04-18T23:19:32.257Z,76.31
2023-04-18T23:21:59.738Z,76.46
2023-04-18T23:24:26.211Z,75.43
2023-04-18T23:26:52.707Z,75.83
2023-04-18T23:29:19.205Z,76.04
2023-04-18T23:31:45.761Z,76.91
2023-04-18T23:34:12.460Z,76.95
2023-04-18T23:36:39.137Z,77.21
2023-04-18T23:39:05.777Z,77.05
2023-04-18T23:41:32.479Z,77.62
2023-04-18T23:43:59.546Z,76.90
2023-04-18T23:46:26.774Z,77.25
2023-04-18T23:48:53.507Z,77.54
2023-04-18T23:51:20.075Z,78.03
2023-04-18T23:53:46.636Z,78.51
2023-04-18T23:56:13.146Z,78.25
2023-04-18T23:58:39.670Z,77.40
